createdAt,value
2022-07-31T00:04:49.881Z,98.05
2022-07-31T00:09:54.421Z,99.94
2022-07-31T00:14:58.564Z,100.00
2022-07-31T00:20:01.159Z,98.39
2022-07-31T00:25:03.826Z,97.19
2022-07-31T00:30:09.257Z,98.59
2022-07-31T00:35:13.960Z,96.43
2022-07-31T00:40:17.887Z,93.96
2022-07-31T00:45:22.228Z,90.52
2022-07-31T00:50:32.102Z,90.12
2022-07-31T00:55:41.744Z,91.59
2022-07-31T01:00:55.517Z,90.13
2022-07-31T01:05:58.109Z,90.87
2022-07-31T01:11:06.424Z,90.55
2022-07-31T01:16:12.209Z,92.67
2022-07-31T01:21:20.972Z,90.57
2022-07-31T01:26:35.439Z,90.54
2022-07-31T01:31:46.317Z,91.15
2022-07-31T01:36:58.007Z,92.23
2022-07-31T01:42:05.653Z,91.12
2022-07-31T01:47:10.927Z,90.73
2022-07-31T01:52:15.056Z,92.46
2022-07-31T01:57:18.732Z,91.55
2022-07-31T02:02:24.124Z,89.45
2022-07-31T02:07:29.571Z,91.29
2022-07-31T02:12:34.113Z,89.76
2022-07-31T02:17:39.367Z,90.61
2022-07-31T02:22:42.161Z,90.98
2022-07-31T02:27:53.581Z,93.29
2022-07-31T02:33:04.465Z,93.54
2022-07-31T02:38:08.492Z,93.79
2022-07-31T02:43:26.648Z,93.03
2022-07-31T02:48:31.913Z,91.90
2022-07-31T02:53:35.208Z,91.52
2022-07-31T02:58:41.784Z,100.00
2022-07-31T03:03:45.879Z,98.17
2022-07-31T03:08:48.427Z,95.04
2022-07-31T03:13:53.816Z,97.71
2022-07-31T03:18:58.600Z,92.40
2022-07-31T03:24:01.852Z,91.73
2022-07-31T03:29:05.651Z,93.47
2022-07-31T03:34:29.473Z,93.68
2022-07-31T03:39:31.948Z,93.35
2022-07-31T03:44:35.282Z,94.02
2022-07-31T03:49:40.724Z,96.48
2022-07-31T03:54:43.640Z,98.60
2022-07-31T03:59:48.258Z,93.29
2022-07-31T04:04:52.599Z,91.74
2022-07-31T04:09:55.156Z,90.34
2022-07-31T04:14:57.657Z,88.38
2022-07-31T04:20:02.330Z,89.57
2022-07-31T04:25:09.306Z,89.63
2022-07-31T04:30:13.018Z,88.90
2022-07-31T04:35:16.848Z,90.18
2022-07-31T04:40:19.409Z,86.63
2022-07-31T04:45:21.990Z,86.75
2022-07-31T04:50:26.228Z,85.53
2022-07-31T04:55:28.704Z,85.83
2022-07-31T05:00:31.235Z,84.43
2022-07-31T05:05:35.102Z,85.18
2022-07-31T05:10:54.502Z,83.62
2022-07-31T05:15:57.876Z,82.79
2022-07-31T05:21:01.644Z,81.30
2022-07-31T05:26:05.160Z,82.09
2022-07-31T05:31:09.236Z,82.30
2022-07-31T05:36:13.501Z,81.22
2022-07-31T05:41:19.105Z,80.81
2022-07-31T05:46:21.642Z,79.89
2022-07-31T05:51:25.448Z,79.22
2022-07-31T05:56:28.164Z,81.25
2022-07-31T06:01:30.786Z,78.27
2022-07-31T06:06:34.714Z,78.08
2022-07-31T06:11:37.235Z,77.30
2022-07-31T06:16:39.686Z,77.71
2022-07-31T06:21:43.499Z,80.02
2022-07-31T06:26:45.971Z,79.97
2022-07-31T06:31:49.167Z,80.90
2022-07-31T06:36:53.118Z,79.85
2022-07-31T06:41:55.654Z,82.25
2022-07-31T06:46:58.126Z,81.85
2022-07-31T06:52:04.968Z,79.52
2022-07-31T06:57:08.663Z,81.45
2022-07-31T07:02:11.211Z,79.41
2022-07-31T07:07:15.061Z,78.62
2022-07-31T07:12:17.553Z,80.05
2022-07-31T07:17:20.168Z,79.54
2022-07-31T07:22:31.266Z,79.65
2022-07-31T07:27:34.747Z,80.50
2022-07-31T07:32:38.488Z,77.89
2022-07-31T07:37:42.744Z,77.19
2022-07-31T07:42:45.296Z,77.79
2022-07-31T07:48:05.986Z,75.49
2022-07-31T07:53:12.904Z,74.87
2022-07-31T07:58:15.408Z,74.64
2022-07-31T08:03:48.968Z,74.03
2022-07-31T08:08:41.792Z,72.30
2022-07-31T08:13:49.362Z,70.14
2022-07-31T08:18:54.367Z,69.77
2022-07-31T08:23:58.240Z,67.97
2022-07-31T08:29:00.623Z,68.17
2022-07-31T08:34:07.742Z,67.27
2022-07-31T08:39:17.698Z,67.14
2022-07-31T08:44:30.899Z,65.99
2022-07-31T08:49:37.850Z,65.67
2022-07-31T08:54:44.455Z,64.25
2022-07-31T08:59:47.142Z,65.93
2022-07-31T09:04:52.635Z,68.61
2022-07-31T09:09:57.147Z,66.86
2022-07-31T09:15:00.233Z,64.22
2022-07-31T09:20:03.373Z,65.38
2022-07-31T09:25:15.902Z,63.09
2022-07-31T09:30:18.624Z,63.06
2022-07-31T09:35:21.239Z,63.90
2022-07-31T09:40:35.585Z,65.21
2022-07-31T09:45:48.173Z,64.18
2022-07-31T09:50:54.821Z,62.76
2022-07-31T09:55:59.754Z,60.03
2022-07-31T10:01:03.149Z,60.96
2022-07-31T10:06:07.006Z,59.06
2022-07-31T10:11:16.789Z,56.39
2022-07-31T10:16:22.374Z,55.31
2022-07-31T10:21:30.268Z,54.97
2022-07-31T10:26:59.189Z,52.70
2022-07-31T10:31:57.793Z,49.51
2022-07-31T10:37:11.196Z,48.33
2022-07-31T10:42:27.531Z,44.75
2022-07-31T10:47:30.009Z,42.73
2022-07-31T10:52:34.767Z,39.16
2022-07-31T10:57:56.902Z,38.22
2022-07-31T11:03:00.230Z,38.02
2022-07-31T11:08:05.436Z,38.44
2022-07-31T11:13:11.543Z,37.41
2022-07-31T11:18:16.599Z,35.12
2022-07-31T11:23:31.130Z,35.37
2022-07-31T11:28:35.877Z,31.92
2022-07-31T11:33:43.124Z,32.47
2022-07-31T11:38:47.664Z,33.83
2022-07-31T11:43:52.654Z,34.70
2022-07-31T11:48:56.146Z,31.71
2022-07-31T11:53:59.237Z,31.50
2022-07-31T11:59:03.152Z,32.28
2022-07-31T12:04:08.759Z,30.77
2022-07-31T12:10:00.375Z,32.53
2022-07-31T12:14:37.958Z,31.76
2022-07-31T12:19:40.410Z,34.69
2022-07-31T12:24:44.070Z,34.06
2022-07-31T12:29:48.363Z,36.26
2022-07-31T12:35:02.540Z,35.98
2022-07-31T12:40:06.075Z,34.32
2022-07-31T12:45:19.473Z,35.26
2022-07-31T12:50:23.614Z,35.86
2022-07-31T12:55:26.338Z,35.52
2022-07-31T13:00:30.237Z,36.74
2022-07-31T13:05:32.859Z,35.96
2022-07-31T13:10:35.737Z,36.73
2022-07-31T13:15:39.552Z,34.93
2022-07-31T13:20:42.057Z,35.29
2022-07-31T13:25:44.542Z,35.36
2022-07-31T13:30:53.242Z,34.41
2022-07-31T13:35:57.509Z,33.32
2022-07-31T13:41:17.822Z,34.33
2022-07-31T13:46:22.703Z,33.01
2022-07-31T13:51:28.843Z,34.17
2022-07-31T13:56:40.381Z,34.56
2022-07-31T14:02:03.359Z,34.33
2022-07-31T14:07:09.099Z,35.07
2022-07-31T14:12:11.987Z,34.91
2022-07-31T14:17:19.199Z,35.46
2022-07-31T14:22:21.701Z,36.47
2022-07-31T14:27:24.188Z,37.71
2022-07-31T14:32:30.440Z,36.35
2022-07-31T14:37:32.962Z,35.00
2022-07-31T14:42:36.084Z,35.67
2022-07-31T14:47:39.942Z,35.50
2022-07-31T14:52:42.612Z,35.64
2022-07-31T14:57:45.323Z,35.58
2022-07-31T15:02:49.556Z,35.80
2022-07-31T15:07:52.393Z,35.73
2022-07-31T15:12:55.581Z,37.21
2022-07-31T15:17:59.574Z,36.33
2022-07-31T15:23:02.582Z,36.85
2022-07-31T15:28:05.817Z,36.75
2022-07-31T15:33:09.712Z,38.03
2022-07-31T15:38:12.315Z,38.79
2022-07-31T15:43:14.829Z,38.69
2022-07-31T15:48:18.654Z,41.08
2022-07-31T15:53:21.105Z,42.00
2022-07-31T15:58:23.665Z,42.00
2022-07-31T16:03:50.802Z,41.97
2022-07-31T16:08:54.303Z,42.44
2022-07-31T16:13:57.026Z,41.91
2022-07-31T16:19:00.833Z,40.99
2022-07-31T16:24:03.310Z,41.54
2022-07-31T16:29:05.776Z,41.80
2022-07-31T16:34:13.641Z,41.10
2022-07-31T16:39:22.130Z,42.11
2022-07-31T16:44:24.907Z,41.89
2022-07-31T16:49:36.900Z,41.39
2022-07-31T16:54:40.157Z,43.06
2022-07-31T16:59:56.925Z,41.89
2022-07-31T17:05:01.519Z,42.01
2022-07-31T17:10:04.314Z,41.92
2022-07-31T17:15:07.715Z,41.84
2022-07-31T17:20:12.382Z,43.05
2022-07-31T17:25:18.402Z,43.65
2022-07-31T17:30:20.844Z,44.20
2022-07-31T17:35:24.718Z,43.60
2022-07-31T17:40:42.471Z,44.06
2022-07-31T17:46:05.291Z,44.26
2022-07-31T17:51:10.538Z,44.83
2022-07-31T17:56:13.458Z,44.50
2022-07-31T18:01:16.045Z,45.98
2022-07-31T18:06:19.939Z,44.85
2022-07-31T18:11:22.774Z,44.81
2022-07-31T18:16:25.319Z,45.04
2022-07-31T18:21:29.227Z,45.21
2022-07-31T18:26:31.952Z,46.86
2022-07-31T18:31:35.887Z,47.11
2022-07-31T18:36:41.111Z,47.56
2022-07-31T18:41:48.808Z,47.37
2022-07-31T18:46:53.008Z,47.17
2022-07-31T18:51:56.882Z,48.17
2022-07-31T18:56:59.565Z,50.29
2022-07-31T19:02:03.212Z,51.38
2022-07-31T19:07:07.353Z,51.34
2022-07-31T19:12:10.444Z,52.44
2022-07-31T19:17:13.389Z,49.82
2022-07-31T19:22:22.503Z,50.81
2022-07-31T19:27:48.484Z,54.52
2022-07-31T19:32:48.115Z,54.93
2022-07-31T19:37:58.044Z,57.17
2022-07-31T19:43:00.582Z,56.87
2022-07-31T19:48:03.214Z,58.42
2022-07-31T19:53:07.383Z,56.54
2022-07-31T19:58:09.957Z,55.50
2022-07-31T20:03:13.910Z,54.32
2022-07-31T20:08:17.802Z,53.63
2022-07-31T20:13:20.723Z,53.04
2022-07-31T20:18:27.226Z,54.53
2022-07-31T20:23:34.424Z,52.65
2022-07-31T20:28:37.537Z,52.39
2022-07-31T20:33:40.047Z,53.75
2022-07-31T20:38:43.974Z,53.34
2022-07-31T20:43:46.473Z,53.62
2022-07-31T20:48:50.009Z,54.46
2022-07-31T20:53:54.219Z,56.40
2022-07-31T20:58:56.838Z,58.36
2022-07-31T21:03:59.384Z,59.22
2022-07-31T21:09:04.490Z,58.64
2022-07-31T21:14:07.204Z,58.55
2022-07-31T21:19:10.361Z,59.53
2022-07-31T21:24:14.840Z,59.56
2022-07-31T21:29:17.848Z,59.13
2022-07-31T21:34:20.956Z,60.13
2022-07-31T21:39:25.893Z,62.75
2022-07-31T21:44:28.723Z,63.83
2022-07-31T21:49:33.686Z,67.15
2022-07-31T21:54:37.544Z,63.63
2022-07-31T21:59:39.904Z,63.48
2022-07-31T22:04:56.389Z,65.38
2022-07-31T22:10:00.603Z,65.55
2022-07-31T22:15:03.103Z,71.44
2022-07-31T22:20:07.619Z,73.34
2022-07-31T22:25:13.395Z,71.38
2022-07-31T22:30:17.177Z,71.20
2022-07-31T22:35:20.130Z,74.96
2022-07-31T22:40:25.174Z,72.33
2022-07-31T22:45:27.864Z,70.01
2022-07-31T22:50:30.756Z,68.16
2022-07-31T22:55:35.200Z,68.13
2022-07-31T23:00:38.465Z,67.59
2022-07-31T23:06:02.493Z,67.85
2022-07-31T23:11:04.934Z,68.31
2022-07-31T23:16:07.338Z,66.18
2022-07-31T23:21:09.833Z,67.58
2022-07-31T23:26:14.610Z,65.71
2022-07-31T23:31:17.481Z,66.52
2022-07-31T23:36:20.259Z,66.70
2022-07-31T23:41:38.088Z,68.41
2022-07-31T23:46:40.663Z,66.56
2022-07-31T23:51:43.206Z,66.69
2022-07-31T23:56:46.987Z,67.40
